Forestburg, Texas
Current Conditions -  °F | °C
As of 10:35 AM on Thursday 23 Oct 2014 (Local Time) from K0F2 Reporting Station
Scattered Clouds Scattered Clouds  
Wind Chill: 71°   Ceiling: Unl
Heat Index: 71°   Visibility: 10mi
Dew Point: 56°   Wind: 13mph
Humidity: 59%   Direction: 150°SSE
Pressure: 30.15"   Gusts: 17mph
Location:  33.53°N, 97.56°W
Report Text: K0F2 231535Z AUTO 15011G15KT 10SM SCT085 22/13 A3015 RMK AO2 T02160134
Loading
Personal Weather Stations






























Interactive Weather Map
Tropical Storm Tracking
New forecast layout! Learn more

10-Day Weather Forecast

Advertisements
Track Severe Weather on mobile